Badlands National Park, SD

11:50 AM MST on February 09, 2016 (GMT -0700)
Cactus Flat | | Change Station
CLOSE
Current Station
Personal Weather Station
Location: South Dakota, SD
Elevation: 2530 ft
Nearby Weather Stations

Elev 2530 ft 43.81 °N, 101.89 °W | Updated 14 seconds ago

Overcast
Overcast
37.2 °F
Feels Like 37 °F
N
2.9
Wind Variable Wind from WSW
Gusts 4.9 mph

Today
High -- | Low -- °F
--% Chance of Precip.
Yesterday
High -- | Low -- °F
Precip. -- in
Pressure 30.31 in
Visibility 10.0 miles
Clouds Scattered Clouds 6500 ft
Mostly Cloudy 12000 ft
Windchill 37 °F
Dew Point 17 °F
Humidity 43%
Rainfall 0.00 in
Snow Depth Not available.
6:55 AM 5:09 PM
New Moon, 2% visible
METAR KPHP 091755Z AUTO 14007KT 10SM SCT065 BKN120 M01/M06 A3026 RMK AO2 SLP264 60000 T10111061 11006 21039 58003
Pressure 30.31 in
Visibility 10.0 miles
Clouds Scattered Clouds 6500 ft
Mostly Cloudy 12000 ft
Windchill 37 °F
Dew Point 17 °F
Humidity 43%
Rainfall 0.00 in
Snow Depth Not available.
6:55 AM 5:09 PM
New Moon, 2% visible
METAR KPHP 091755Z AUTO 14007KT 10SM SCT065 BKN120 M01/M06 A3026 RMK AO2 SLP264 60000 T10111061 11006 21039 58003

10-Day Weather Forecast

Almanac

Astronomy

Feb. 09, 2016 Rise Set
Actual Time
Civil Twilight
Nautical Twilight
Astronomical Twilight
Moon
Length of Visible Light
Length of Day
Tomorrow will be .
, % of the Moon is Illuminated

Today's Extremes

State Highs State Lows

Community

WunderPhotos

Upload Photos

1,891,660 photos uploaded!

WunderBlog® & News

Nearby

Air Quality

  Air Quality AQ Index Pollutant
Not available.

Snow Depth

Station Depth Elevation

Earthquake Activity

City Distance Mag. Time & Date
Minimum magnitude displayed is 2.5.

Coastal Water Temperatures

Place Temperature

Stations

Nearby Weather Stations

Station Location Temp. Windchill Dew Point Humidity Wind Precip. Elev Updated Type
                   

Watches & Warnings

There are currently no watches in effect.